Time;durP1;ratioP1;P1;durP2;ratioP2;P2;SDS_P1;SDS_P2;PMS_P1;PMS_P2;Temp;Humidity;BMP_temperature;BMP_pressure;BME280_temperature;BME280_humidity;BME280_pressure;Samples;Min_cycle;Max_cycle;Signal;HPM_P1;HPM_P2
2022/03/07 00:02:22;;;;;;;6.65;4.47;;;;;;;3.40;58.35;102204.84;5051092;28;20072;-72
2022/03/07 00:04:49;;;;;;;8.10;4.32;;;;;;;3.39;58.36;102198.84;5049713;28;20526;-72
2022/03/07 00:07:16;;;;;;;7.45;4.70;;;;;;;3.60;57.60;102204.88;5050508;28;20069;-72
2022/03/07 00:09:42;;;;;;;6.80;4.50;;;;;;;3.31;58.84;102208.31;5049672;28;20063;-72
2022/03/07 00:12:09;;;;;;;9.55;4.45;;;;;;;3.33;58.69;102206.59;5050028;28;20134;-72
2022/03/07 00:14:36;;;;;;;8.93;4.47;;;;;;;3.43;58.63;102215.25;5050997;28;20053;-72
2022/03/07 00:17:02;;;;;;;9.00;4.63;;;;;;;3.48;58.39;102212.66;5050742;28;20109;-72
2022/03/07 00:19:29;;;;;;;7.75;4.50;;;;;;;3.55;58.16;102206.63;5049948;28;20076;-72
2022/03/07 00:21:57;;;;;;;8.80;4.60;;;;;;;3.59;57.95;102209.19;5049713;28;20049;-72
2022/03/07 00:24:23;;;;;;;9.13;4.53;;;;;;;3.56;58.11;102205.75;5050180;28;20072;-72
2022/03/07 00:26:50;;;;;;;8.43;4.68;;;;;;;3.48;58.54;102200.56;5049817;28;20126;-72
2022/03/07 00:29:17;;;;;;;7.97;4.30;;;;;;;3.68;57.90;102196.25;5049753;28;20056;-72
2022/03/07 00:31:45;;;;;;;8.38;4.57;;;;;;;3.80;57.35;102204.03;5050390;28;20057;-72
2022/03/07 00:34:11;;;;;;;7.97;4.50;;;;;;;3.49;58.91;102199.69;5048727;28;20124;-72
2022/03/07 00:36:38;;;;;;;7.28;4.10;;;;;;;3.35;60.29;102206.59;5050085;28;20496;-72
2022/03/07 00:39:05;;;;;;;9.82;4.97;;;;;;;3.47;59.69;102195.38;5046504;28;20049;-72
2022/03/07 00:41:32;;;;;;;10.20;4.93;;;;;;;3.28;60.03;102202.28;5049851;28;20082;-72
2022/03/07 00:43:58;;;;;;;10.23;4.72;;;;;;;3.36;59.89;102210.94;5049974;28;20130;-72
2022/03/07 00:46:24;;;;;;;7.78;4.65;;;;;;;3.41;59.45;102207.47;5050344;28;20096;-72
2022/03/07 00:48:51;;;;;;;7.80;4.57;;;;;;;3.52;59.22;102204.00;5037129;28;20094;-72
2022/03/07 00:51:17;;;;;;;8.05;4.68;;;;;;;3.46;59.29;102204.88;5045894;28;20068;-72
2022/03/07 00:53:44;;;;;;;8.07;4.78;;;;;;;3.70;58.61;102211.78;5050015;28;20130;-72
2022/03/07 00:56:11;;;;;;;8.90;4.22;;;;;;;3.82;57.93;102211.81;5034802;28;20076;-72
2022/03/07 00:58:38;;;;;;;9.25;5.20;;;;;;;3.80;57.62;102214.41;5045392;28;20048;-72
2022/03/07 01:01:04;;;;;;;10.25;5.32;;;;;;;3.61;58.96;102225.66;5048456;28;20068;-72
2022/03/07 01:03:30;;;;;;;8.55;4.40;;;;;;;3.47;59.43;102229.97;5045221;28;20183;-72
2022/03/07 01:05:57;;;;;;;7.80;4.63;;;;;;;3.19;60.83;102229.03;5049690;28;20125;-72
2022/03/07 01:08:23;;;;;;;7.70;4.90;;;;;;;3.12;61.19;102229.00;5049528;28;20687;-72
2022/03/07 01:10:50;;;;;;;8.30;4.53;;;;;;;3.13;61.18;102230.75;5048203;28;20052;-72
2022/03/07 01:13:18;;;;;;;7.82;4.70;;;;;;;3.45;59.98;102223.91;5048715;28;20102;-72
2022/03/07 01:15:44;;;;;;;8.45;4.80;;;;;;;3.39;59.48;102219.56;5049041;28;20127;-72
2022/03/07 01:18:11;;;;;;;7.97;4.60;;;;;;;3.45;59.55;102229.06;5044772;28;20044;-72
2022/03/07 01:20:37;;;;;;;7.60;4.60;;;;;;;3.41;59.19;102217.84;5046701;28;20160;-72
2022/03/07 01:23:03;;;;;;;8.60;5.45;;;;;;;3.34;59.61;102220.41;5048222;28;20052;-72
2022/03/07 01:25:30;;;;;;;9.85;5.22;;;;;;;3.62;58.75;102226.53;5048917;28;20821;-72
2022/03/07 01:27:57;;;;;;;10.30;4.63;;;;;;;3.56;58.69;102234.28;5044270;28;20080;-72
2022/03/07 01:30:24;;;;;;;10.38;5.13;;;;;;;3.07;60.77;102229.00;5048979;28;20051;-72
2022/03/07 01:32:52;;;;;;;10.52;4.90;;;;;;;2.79;61.81;102222.88;5045009;28;20048;-72
2022/03/07 01:35:19;;;;;;;8.32;4.30;;;;;;;3.18;60.60;102226.47;5047808;28;20053;-72
2022/03/07 01:37:46;;;;;;;8.23;4.72;;;;;;;3.31;59.46;102226.47;5038204;28;20053;-71
2022/03/07 01:40:13;;;;;;;7.85;4.75;;;;;;;3.10;60.95;102222.97;5048307;28;20053;-71
2022/03/07 01:42:39;;;;;;;8.50;5.20;;;;;;;3.57;59.33;102216.13;5048782;28;20081;-71
2022/03/07 01:45:11;;;;;;;11.90;4.90;;;;;;;3.42;59.86;102221.31;5048826;28;20432;-72
2022/03/07 01:47:39;;;;;;;10.05;4.80;;;;;;;3.03;61.43;102211.72;5048911;28;20505;-72
2022/03/07 01:50:07;;;;;;;9.65;4.95;;;;;;;2.95;61.98;102205.66;5048431;28;20077;-72
2022/03/07 01:52:34;;;;;;;10.27;5.18;;;;;;;2.94;62.01;102204.78;5048322;28;20166;-72
2022/03/07 01:55:00;;;;;;;10.70;5.13;;;;;;;3.01;61.35;102203.06;5048340;28;20061;-71
2022/03/07 01:57:29;;;;;;;7.63;4.80;;;;;;;3.23;61.06;102199.66;5048478;28;20154;-71
2022/03/07 01:59:55;;;;;;;10.48;5.18;;;;;;;3.08;60.72;102206.53;5048109;28;20534;-71
2022/03/07 02:02:22;;;;;;;7.00;4.75;;;;;;;2.98;61.39;102191.84;5033370;28;20068;-71
2022/03/07 02:04:49;;;;;;;12.93;5.28;;;;;;;3.06;61.66;102197.91;5044635;28;20678;-71
2022/03/07 02:07:16;;;;;;;8.85;4.80;;;;;;;3.16;61.38;102199.66;5040453;28;20862;-71
2022/03/07 02:09:42;;;;;;;12.80;5.97;;;;;;;3.21;60.85;102195.34;5047914;28;20163;-71
2022/03/07 02:12:09;;;;;;;8.38;4.95;;;;;;;3.41;60.11;102193.63;5044677;28;20044;-71
2022/03/07 02:14:35;;;;;;;7.68;4.57;;;;;;;3.38;60.10;102194.50;5049033;28;20073;-71
2022/03/07 02:17:02;;;;;;;9.18;4.97;;;;;;;3.39;60.23;102193.66;5048376;28;20068;-71
2022/03/07 02:19:28;;;;;;;10.30;5.20;;;;;;;3.43;60.27;102194.53;5048000;28;20070;-71
2022/03/07 02:22:00;;;;;;;10.57;5.20;;;;;;;3.30;60.80;102197.94;5049308;28;20130;-71
2022/03/07 02:24:28;;;;;;;8.63;5.38;;;;;;;3.31;60.91;102189.31;5037951;28;20594;-71
2022/03/07 02:26:59;;;;;;;7.75;5.07;;;;;;;3.38;60.40;102186.72;5048366;28;21304;-71
2022/03/07 02:29:26;;;;;;;8.70;5.05;;;;;;;3.54;59.96;102185.00;5044399;28;20529;-71
2022/03/07 02:31:53;;;;;;;9.95;5.40;;;;;;;3.66;59.05;102184.16;5047569;28;20072;-72
2022/03/07 02:34:19;;;;;;;9.93;5.65;;;;;;;3.77;58.64;102185.84;5045996;28;20130;-71
2022/03/07 02:36:45;;;;;;;9.15;4.97;;;;;;;3.54;59.31;102182.41;5048705;28;20072;-71
2022/03/07 02:39:13;;;;;;;9.80;5.45;;;;;;;3.47;59.37;102180.69;5047734;28;20557;-71
2022/03/07 02:41:41;;;;;;;10.52;5.70;;;;;;;3.49;59.44;102175.50;5047751;28;20566;-71
2022/03/07 02:44:07;;;;;;;10.85;5.57;;;;;;;3.61;58.70;102184.16;5047861;28;20464;-71
2022/03/07 02:46:34;;;;;;;10.15;5.47;;;;;;;3.50;58.94;102180.69;5047120;28;20134;-71
2022/03/07 02:49:01;;;;;;;9.13;5.30;;;;;;;3.20;59.96;102178.06;5047257;28;20570;-70
2022/03/07 02:51:27;;;;;;;11.65;6.05;;;;;;;3.07;60.31;102173.75;5046715;28;20563;-70
2022/03/07 02:53:54;;;;;;;10.88;6.13;;;;;;;2.98;60.51;102189.25;5048149;28;20695;-71
2022/03/07 02:56:21;;;;;;;11.90;5.43;;;;;;;3.02;60.23;102191.00;5048264;28;20493;-71
2022/03/07 02:58:48;;;;;;;10.25;5.38;;;;;;;2.94;60.35;102202.19;5047267;28;20214;-71
2022/03/07 03:01:14;;;;;;;11.10;5.90;;;;;;;2.88;60.47;102204.75;5045499;28;20855;-71
2022/03/07 03:03:40;;;;;;;9.45;5.22;;;;;;;2.72;60.97;102207.31;5047335;28;20525;-71
2022/03/07 03:06:07;;;;;;;12.30;5.85;;;;;;;2.64;61.19;102207.28;5046908;28;20114;-71
2022/03/07 03:08:34;;;;;;;10.00;5.82;;;;;;;2.26;62.82;102201.03;5047604;28;20060;-71
2022/03/07 03:11:01;;;;;;;9.48;5.22;;;;;;;2.39;62.38;102197.66;5045732;28;20453;-74
2022/03/07 03:13:29;;;;;;;12.55;6.55;;;;;;;2.38;62.60;102195.94;5047280;28;20107;-74
2022/03/07 03:15:56;;;;;;;11.00;6.22;;;;;;;2.39;62.63;102192.50;5047733;28;20069;-73
2022/03/07 03:18:23;;;;;;;9.73;5.93;;;;;;;2.27;62.96;102192.41;5039344;28;20076;-72
2022/03/07 03:20:52;;;;;;;10.73;5.82;;;;;;;2.31;62.68;102189.00;5037884;28;20053;-72
2022/03/07 03:23:19;;;;;;;14.40;6.60;;;;;;;2.28;63.20;102188.97;5031770;28;20447;-72
2022/03/07 03:25:46;;;;;;;9.65;5.70;;;;;;;2.33;63.32;102197.63;5044129;28;20072;-71
2022/03/07 03:28:13;;;;;;;13.15;6.43;;;;;;;2.37;63.11;102195.06;5032026;28;20045;-71
2022/03/07 03:30:41;;;;;;;14.05;6.45;;;;;;;2.23;63.99;102186.38;5043527;28;20080;-72
2022/03/07 03:33:07;;;;;;;10.10;6.10;;;;;;;2.26;63.84;102186.38;5047484;28;20129;-71
2022/03/07 03:35:35;;;;;;;11.45;6.28;;;;;;;2.23;63.69;102190.66;5032895;28;20154;-72
2022/03/07 03:38:02;;;;;;;15.13;5.97;;;;;;;2.05;63.74;102183.66;5044645;28;20088;-71
2022/03/07 03:40:28;;;;;;;12.10;6.38;;;;;;;2.07;63.58;102178.53;5046111;28;20729;-72
2022/03/07 03:42:55;;;;;;;11.82;6.28;;;;;;;1.80;63.97;102177.47;5047789;28;20178;-72
2022/03/07 03:45:21;;;;;;;11.93;6.20;;;;;;;1.87;64.01;102184.44;5039155;28;20068;-72
2022/03/07 03:47:49;;;;;;;11.68;6.22;;;;;;;1.61;64.50;102175.59;5045221;28;20081;-72
2022/03/07 03:50:15;;;;;;;15.25;6.43;;;;;;;1.45;65.33;102177.19;5046908;28;20060;-72
2022/03/07 03:52:43;;;;;;;11.57;6.22;;;;;;;1.78;63.92;102180.88;5047628;28;20045;-72
2022/03/07 03:55:11;;;;;;;10.68;6.05;;;;;;;1.85;63.25;102178.34;5030284;28;20073;-72
2022/03/07 03:57:38;;;;;;;10.02;5.82;;;;;;;1.52;63.77;102178.09;5042785;28;20041;-72
2022/03/07 04:00:06;;;;;;;10.73;5.80;;;;;;;1.36;64.11;102174.56;5047786;28;20053;-72
2022/03/07 04:02:32;;;;;;;11.13;6.22;;;;;;;1.61;62.96;102175.59;5051288;28;20121;-73
2022/03/07 04:05:00;;;;;;;13.02;6.03;;;;;;;1.73;62.86;102172.25;5047054;28;20102;-72
2022/03/07 04:07:26;;;;;;;12.05;5.50;;;;;;;1.63;63.13;102178.19;5051168;28;20813;-72
2022/03/07 04:09:53;;;;;;;13.45;6.00;;;;;;;1.67;62.64;102180.81;5035620;28;20497;-72
2022/03/07 04:12:19;;;;;;;12.05;6.25;;;;;;;1.89;62.85;102179.25;5041317;28;20446;-72
2022/03/07 04:14:45;;;;;;;12.07;5.97;;;;;;;1.84;62.33;102174.06;5049921;28;20080;-72
2022/03/07 04:17:12;;;;;;;9.93;5.40;;;;;;;1.82;62.10;102178.34;5050048;28;20118;-72
2022/03/07 04:19:38;;;;;;;10.75;6.20;;;;;;;1.42;63.31;102177.19;5050502;28;20076;-72
2022/03/07 04:22:06;;;;;;;10.65;5.10;;;;;;;1.30;63.44;102181.34;5050019;28;20102;-72
2022/03/07 04:24:34;;;;;;;10.38;5.90;;;;;;;1.24;63.39;102181.31;5050017;28;20056;-72
2022/03/07 04:27:01;;;;;;;11.13;5.43;;;;;;;1.17;63.33;102185.56;5050185;28;20061;-72
2022/03/07 04:29:27;;;;;;;8.93;4.97;;;;;;;0.95;64.15;102186.19;5049164;28;20083;-72
2022/03/07 04:31:53;;;;;;;10.00;5.40;;;;;;;1.47;62.86;102179.81;5048843;28;20057;-72
2022/03/07 04:34:20;;;;;;;18.48;6.28;;;;;;;0.95;64.67;102187.06;5050768;28;20077;-72
2022/03/07 04:36:46;;;;;;;9.88;5.82;;;;;;;0.97;64.51;102193.09;5049140;28;20088;-72
2022/03/07 04:39:14;;;;;;;11.45;5.78;;;;;;;1.04;64.96;102194.03;5049220;28;20165;-72
2022/03/07 04:41:40;;;;;;;10.77;5.60;;;;;;;0.93;65.01;102199.06;5051256;28;20516;-72
2022/03/07 04:44:07;;;;;;;10.85;5.55;;;;;;;0.98;65.06;102199.13;5054307;28;20064;-72
2022/03/07 04:46:34;;;;;;;12.07;5.60;;;;;;;1.09;65.12;102194.06;5058197;28;20126;-72
2022/03/07 04:49:00;;;;;;;10.35;5.63;;;;;;;1.40;63.74;102193.53;5057869;28;20133;-72
2022/03/07 04:51:26;;;;;;;11.60;5.28;;;;;;;1.16;64.61;102201.03;5057064;28;20116;-72
2022/03/07 04:53:53;;;;;;;9.98;5.65;;;;;;;1.21;64.38;102202.81;5068700;28;20033;-72
2022/03/07 04:56:21;;;;;;;10.20;5.68;;;;;;;1.06;64.52;102200.09;5076426;28;20135;-71
2022/03/07 04:58:48;;;;;;;11.25;5.35;;;;;;;1.25;64.10;102209.75;5078969;28;20052;-71
2022/03/07 05:01:15;;;;;;;9.13;5.28;;;;;;;1.10;64.83;102211.31;5074047;28;20044;-71
2022/03/07 05:03:42;;;;;;;11.55;5.80;;;;;;;0.93;65.45;102218.88;5074958;28;20044;-72
2022/03/07 05:06:09;;;;;;;9.60;5.50;;;;;;;0.96;65.61;102214.59;5072315;28;20045;-72
2022/03/07 05:08:37;;;;;;;12.68;5.07;;;;;;;0.87;66.16;102216.22;5073372;28;20104;-72
2022/03/07 05:11:04;;;;;;;10.85;5.95;;;;;;;0.74;66.99;102224.69;5066799;28;20349;-72
2022/03/07 05:13:32;;;;;;;15.98;5.93;;;;;;;0.59;67.95;102217.63;5050985;28;20049;-72
2022/03/07 05:15:58;;;;;;;10.30;6.45;;;;;;;0.64;68.00;102218.53;5051772;28;20102;-72
2022/03/07 05:18:24;;;;;;;10.23;6.40;;;;;;;0.79;67.38;102223.88;5052434;28;20118;-72
2022/03/07 05:20:51;;;;;;;11.38;5.70;;;;;;;0.89;66.70;102215.38;5051497;28;20072;-73
2022/03/07 05:23:17;;;;;;;9.27;5.68;;;;;;;0.71;66.90;102222.91;5050835;28;20110;-72
2022/03/07 05:25:43;;;;;;;12.40;5.82;;;;;;;0.44;67.73;102222.59;5051544;28;20130;-72
2022/03/07 05:28:10;;;;;;;14.63;5.97;;;;;;;0.52;67.59;102228.69;5055284;28;20049;-72
2022/03/07 05:30:38;;;;;;;11.50;6.32;;;;;;;0.46;68.49;102233.78;5053042;28;20045;-70
2022/03/07 05:33:04;;;;;;;10.18;5.65;;;;;;;0.39;69.24;102237.13;5050921;28;20052;-69
2022/03/07 05:35:30;;;;;;;9.90;5.85;;;;;;;0.58;68.66;102239.13;5051223;28;20130;-70
2022/03/07 05:37:57;;;;;;;9.88;5.13;;;;;;;0.70;68.75;102238.41;5050132;28;20459;-70
2022/03/07 05:40:23;;;;;;;12.80;6.03;;;;;;;0.87;68.00;102245.50;5040372;28;20130;-70
2022/03/07 05:42:50;;;;;;;9.43;5.40;;;;;;;0.65;68.64;102245.22;5033324;28;20057;-70
2022/03/07 05:45:16;;;;;;;12.45;6.18;;;;;;;0.83;68.27;102243.72;5048364;28;20077;-70
2022/03/07 05:47:44;;;;;;;12.68;6.03;;;;;;;0.95;68.00;102246.47;5047779;28;20105;-70
2022/03/07 05:50:11;;;;;;;13.05;6.35;;;;;;;1.11;67.51;102246.63;5048296;28;20057;-70
2022/03/07 05:52:38;;;;;;;10.63;5.80;;;;;;;1.29;66.78;102252.88;5047553;28;20049;-70
2022/03/07 05:55:06;;;;;;;11.10;5.68;;;;;;;1.46;66.07;102258.19;5047762;28;20060;-70
2022/03/07 05:57:33;;;;;;;9.50;5.40;;;;;;;1.43;66.20;102256.47;5048128;28;20109;-70
2022/03/07 05:59:59;;;;;;;12.25;5.95;;;;;;;1.50;66.28;102256.50;5046977;28;20072;-70
2022/03/07 06:02:26;;;;;;;12.48;6.55;;;;;;;1.36;66.91;102251.22;5046467;28;20083;-70
2022/03/07 06:04:53;;;;;;;11.05;6.03;;;;;;;1.36;66.50;102251.22;5047813;28;20263;-70
2022/03/07 06:07:20;;;;;;;11.52;5.78;;;;;;;1.11;67.11;102251.81;5045324;28;20053;-70
2022/03/07 06:09:46;;;;;;;10.38;6.20;;;;;;;1.23;66.89;102249.34;5047147;28;20154;-69
2022/03/07 06:12:12;;;;;;;12.15;6.15;;;;;;;1.37;66.46;102255.50;5047463;28;20541;-70
2022/03/07 06:14:39;;;;;;;11.73;6.50;;;;;;;1.14;67.21;102251.84;5035831;28;20072;-70
2022/03/07 06:17:05;;;;;;;12.40;6.10;;;;;;;1.07;67.49;102250.91;5047601;28;20155;-69
2022/03/07 06:19:32;;;;;;;19.48;6.75;;;;;;;1.43;66.53;102256.47;5030326;28;20461;-69
2022/03/07 06:21:59;;;;;;;13.05;7.07;;;;;;;1.35;66.62;102250.34;5040347;28;20072;-70
2022/03/07 06:24:28;;;;;;;14.18;6.18;;;;;;;1.38;66.66;102262.41;5039962;28;20650;-70
2022/03/07 06:26:55;;;;;;;11.90;6.35;;;;;;;1.48;66.32;102253.06;5039313;28;20049;-70
2022/03/07 06:29:21;;;;;;;13.30;6.30;;;;;;;1.79;65.25;102252.44;5043874;28;20068;-70
2022/03/07 06:31:48;;;;;;;17.50;6.95;;;;;;;1.82;64.95;102249.88;5047480;28;20188;-70
2022/03/07 06:34:14;;;;;;;12.70;7.22;;;;;;;2.16;63.63;102256.19;5047133;28;20040;-70
2022/03/07 06:36:41;;;;;;;13.07;6.30;;;;;;;2.72;61.73;102259.09;5045874;28;20072;-70
2022/03/07 06:39:09;;;;;;;11.95;7.53;;;;;;;3.14;60.36;102258.41;5047276;28;20079;-71
2022/03/07 06:41:35;;;;;;;11.95;7.10;;;;;;;3.65;59.08;102242.94;5046739;28;20842;-70
2022/03/07 06:44:01;;;;;;;13.35;7.32;;;;;;;4.10;57.76;102264.56;5044654;28;20099;-70
2022/03/07 06:46:28;;;;;;;12.93;7.05;;;;;;;4.73;55.58;102251.41;5048351;28;20096;-70
2022/03/07 06:48:55;;;;;;;11.77;6.75;;;;;;;4.84;54.67;102249.63;5040454;28;20041;-69
2022/03/07 06:51:21;;;;;;;11.38;6.63;;;;;;;5.34;53.32;102248.53;5062391;28;20045;-69
2022/03/07 06:53:47;;;;;;;15.85;6.55;;;;;;;5.56;53.48;102247.50;5067201;28;20071;-71
2022/03/07 06:56:17;;;;;;;12.23;7.32;;;;;;;5.51;52.66;102249.25;5049582;28;20099;-70
2022/03/07 06:58:44;;;;;;;15.15;7.25;;;;;;;5.98;52.32;102255.88;5048875;28;20047;-70
2022/03/07 07:01:11;;;;;;;12.60;7.25;;;;;;;6.77;48.99;102246.34;5049807;28;20048;-70
2022/03/07 07:03:37;;;;;;;14.02;7.13;;;;;;;6.83;50.06;102256.72;5056776;28;20436;-70
2022/03/07 07:06:03;;;;;;;16.13;7.30;;;;;;;6.79;49.70;102259.38;5049255;28;20105;-70
2022/03/07 07:08:30;;;;;;;10.50;6.28;;;;;;;7.03;49.19;102266.03;5067742;28;20065;-70
2022/03/07 07:10:56;;;;;;;8.88;6.50;;;;;;;7.13;47.53;102260.66;5061947;28;20037;-70
2022/03/07 07:13:24;;;;;;;11.02;7.10;;;;;;;7.17;47.67;102257.13;5062464;28;20074;-70
2022/03/07 07:15:55;;;;;;;12.40;7.03;;;;;;;7.43;48.90;102248.94;5059986;28;20473;-70
2022/03/07 07:18:21;;;;;;;9.77;6.93;;;;;;;8.03;46.87;102256.69;5067692;28;20048;-70
2022/03/07 07:20:50;;;;;;;11.15;6.55;;;;;;;8.06;46.41;102267.94;5056928;28;20557;-70
2022/03/07 07:23:16;;;;;;;9.77;6.80;;;;;;;7.99;47.13;102268.06;5047907;28;20068;-70
2022/03/07 07:25:42;;;;;;;12.20;7.57;;;;;;;8.05;46.85;102265.38;5047568;28;20095;-70
2022/03/07 07:28:09;;;;;;;14.23;7.25;;;;;;;8.45;44.92;102274.25;5035830;28;20092;-70
2022/03/07 07:30:36;;;;;;;11.43;7.15;;;;;;;8.85;44.45;102270.88;5054666;28;20041;-70
2022/03/07 07:33:03;;;;;;;12.00;6.97;;;;;;;8.64;45.55;102267.78;5053343;28;20044;-70
2022/03/07 07:35:29;;;;;;;10.70;7.40;;;;;;;8.45;47.07;102271.66;5039505;28;20042;-72
2022/03/07 07:37:56;;;;;;;15.50;7.80;;;;;;;8.86;45.74;102265.63;5059640;28;20048;-72
2022/03/07 07:40:22;;;;;;;12.55;7.18;;;;;;;8.76;46.10;102267.53;5066862;28;20056;-71
2022/03/07 07:42:49;;;;;;;12.02;7.43;;;;;;;8.85;43.66;102270.88;5065757;28;20066;-71
2022/03/07 07:45:15;;;;;;;13.00;7.47;;;;;;;8.99;44.04;102274.06;5066565;28;20045;-71
2022/03/07 07:47:43;;;;;;;13.85;7.50;;;;;;;9.16;44.07;102259.72;5071059;28;20075;-71
2022/03/07 07:50:10;;;;;;;12.13;7.50;;;;;;;9.74;43.24;102247.91;5058242;28;20385;-71
2022/03/07 07:52:36;;;;;;;15.55;7.97;;;;;;;9.29;43.85;102249.84;5051446;28;20041;-70
2022/03/07 07:55:04;;;;;;;13.13;7.65;;;;;;;9.42;43.56;102256.53;5054150;28;20110;-70
2022/03/07 07:57:31;;;;;;;14.68;7.93;;;;;;;9.66;42.44;102253.34;5048284;28;20053;-70
2022/03/07 07:59:57;;;;;;;14.18;8.65;;;;;;;10.03;42.03;102252.44;5062931;28;20041;-70
2022/03/07 08:02:24;;;;;;;12.10;7.90;;;;;;;10.07;43.97;102254.94;5076190;28;20121;-70
2022/03/07 08:04:52;;;;;;;18.77;7.38;;;;;;;9.96;42.40;102267.44;5042176;28;20069;-70
2022/03/07 08:07:19;;;;;;;11.85;7.60;;;;;;;9.97;42.45;102268.31;5060683;28;20419;-70
2022/03/07 08:09:45;;;;;;;12.15;7.50;;;;;;;10.32;42.71;102270.06;5068837;28;20412;-71
2022/03/07 08:12:12;;;;;;;11.65;7.13;;;;;;;10.79;41.40;102277.47;5066945;28;20122;-71
2022/03/07 08:14:39;;;;;;;14.70;8.07;;;;;;;10.99;40.29;102271.69;5067086;28;20048;-71
2022/03/07 08:17:06;;;;;;;14.32;7.28;;;;;;;11.58;40.78;102259.34;5053222;28;20045;-71
2022/03/07 08:19:33;;;;;;;12.82;7.10;;;;;;;11.67;39.62;102256.44;5058272;28;20044;-71
2022/03/07 08:22:00;;;;;;;13.65;7.82;;;;;;;11.35;39.89;102272.34;5069643;28;20052;-71
2022/03/07 08:24:27;;;;;;;17.48;7.32;;;;;;;11.63;40.36;102267.97;5049547;28;20040;-71
2022/03/07 08:26:53;;;;;;;10.07;7.30;;;;;;;11.86;39.67;102267.25;5058193;28;20418;-71
2022/03/07 08:29:19;;;;;;;11.60;7.22;;;;;;;12.05;39.83;102263.94;5055313;28;20105;-71
2022/03/07 08:31:46;;;;;;;10.18;7.25;;;;;;;11.92;40.53;102261.78;5038645;28;20045;-71
2022/03/07 08:34:13;;;;;;;15.43;6.35;;;;;;;12.14;39.13;102262.78;5054005;28;20497;-71
2022/03/07 08:36:39;;;;;;;13.80;7.05;;;;;;;12.56;38.87;102268.34;5055072;28;20063;-71
2022/03/07 08:39:07;;;;;;;11.98;6.95;;;;;;;12.63;40.62;102262.81;5069401;28;20090;-71
2022/03/07 08:41:34;;;;;;;10.85;6.78;;;;;;;12.74;38.37;102265.03;5069608;28;20114;-71
2022/03/07 08:44:00;;;;;;;11.30;7.05;;;;;;;12.88;37.21;102268.03;5068358;28;20040;-71
2022/03/07 08:46:27;;;;;;;12.18;6.82;;;;;;;12.91;40.15;102267.03;5071077;28;20044;-71
2022/03/07 08:48:53;;;;;;;20.70;6.95;;;;;;;12.80;39.04;102271.84;5055354;28;20045;-71
2022/03/07 08:51:20;;;;;;;11.27;6.80;;;;;;;12.99;39.97;102270.25;5053125;28;20052;-71
2022/03/07 08:53:47;;;;;;;11.27;6.90;;;;;;;13.03;37.88;102280.63;5068982;28;20098;-71
2022/03/07 08:56:14;;;;;;;13.02;6.88;;;;;;;13.44;37.54;102271.16;5069758;28;20045;-71
2022/03/07 08:58:41;;;;;;;12.77;6.78;;;;;;;13.61;37.81;102273.97;5048574;28;20052;-70
2022/03/07 09:01:07;;;;;;;15.45;6.97;;;;;;;13.50;38.40;102276.19;5049460;28;20081;-70
2022/03/07 09:03:34;;;;;;;15.25;6.72;;;;;;;13.99;36.95;102272.44;5051136;28;20064;-70
2022/03/07 09:06:01;;;;;;;11.95;6.78;;;;;;;13.73;39.13;102272.63;5070021;28;20067;-70
2022/03/07 09:08:27;;;;;;;9.02;6.18;;;;;;;14.19;35.79;102270.75;5049614;28;20086;-70
2022/03/07 09:10:54;;;;;;;15.55;6.55;;;;;;;13.50;36.04;102277.97;5060842;28;20154;-70
2022/03/07 09:13:21;;;;;;;13.48;6.93;;;;;;;13.70;37.39;102264.84;5067236;28;20067;-70
2022/03/07 09:15:49;;;;;;;9.05;6.05;;;;;;;13.82;38.15;102261.69;5050773;28;20463;-70
2022/03/07 09:18:15;;;;;;;16.70;6.70;;;;;;;14.34;38.99;102273.59;5045131;28;20436;-70
2022/03/07 09:20:42;;;;;;;15.07;7.07;;;;;;;14.55;37.38;102279.75;5050926;28;20045;-70
2022/03/07 09:23:08;;;;;;;12.05;6.60;;;;;;;14.78;37.08;102265.53;5068129;28;20044;-70
2022/03/07 09:25:34;;;;;;;10.95;6.28;;;;;;;15.24;35.12;102259.81;5065373;28;20110;-70
2022/03/07 09:28:01;;;;;;;9.68;6.95;;;;;;;15.35;36.37;102260.16;5069088;28;20041;-70
2022/03/07 09:30:28;;;;;;;13.82;6.60;;;;;;;14.31;34.74;102259.63;5058468;28;20120;-70
2022/03/07 09:32:56;;;;;;;14.50;7.28;;;;;;;14.79;36.89;102256.66;5047144;28;20449;-70
2022/03/07 09:35:22;;;;;;;12.25;7.30;;;;;;;15.01;36.41;102245.03;5053402;28;20052;-70
2022/03/07 09:37:49;;;;;;;17.50;7.10;;;;;;;15.29;36.49;102246.41;5069339;28;20040;-70
2022/03/07 09:40:15;;;;;;;12.27;7.03;;;;;;;15.10;34.63;102241.97;5064538;28;20045;-68
2022/03/07 09:42:41;;;;;;;12.57;7.50;;;;;;;15.59;32.33;102240.50;5059376;28;20134;-69
2022/03/07 09:45:09;;;;;;;9.52;6.97;;;;;;;15.65;35.13;102234.06;5048339;28;20102;-68
2022/03/07 09:47:40;;;;;;;11.95;7.10;;;;;;;15.34;35.55;102239.09;5048900;28;20048;-69
2022/03/07 09:50:08;;;;;;;13.55;7.60;;;;;;;14.89;36.85;102236.84;5050157;28;20048;-69
2022/03/07 09:52:35;;;;;;;11.85;7.10;;;;;;;15.15;36.09;102241.75;5068336;28;20040;-69
2022/03/07 09:55:02;;;;;;;9.05;6.03;;;;;;;14.87;38.39;102249.25;5056675;28;20420;-71
2022/03/07 09:57:29;;;;;;;7.28;5.35;;;;;;;14.68;35.46;102240.44;5052904;28;20040;-71
2022/03/07 09:59:56;;;;;;;10.30;5.40;;;;;;;15.18;34.10;102241.63;5068856;28;20131;-71
2022/03/07 10:02:25;;;;;;;8.95;5.10;;;;;;;15.44;34.66;102230.69;5069065;28;20492;-71
2022/03/07 10:04:53;;;;;;;12.98;5.35;;;;;;;15.19;37.13;102235.38;5068947;28;20048;-72
2022/03/07 10:07:19;;;;;;;10.57;6.68;;;;;;;15.31;36.41;102232.19;5068252;28;20049;-72
2022/03/07 10:09:47;;;;;;;7.53;5.38;;;;;;;15.46;35.04;102235.88;5068188;28;20041;-72
2022/03/07 10:12:13;;;;;;;11.50;5.30;;;;;;;15.80;35.07;102238.63;5068788;28;20472;-71
2022/03/07 10:14:44;;;;;;;14.98;5.47;;;;;;;15.75;35.83;102252.97;5067833;28;20098;-72
2022/03/07 10:17:21;;;;;;;13.32;6.13;;;;;;;15.15;38.67;102254.94;5052653;28;20049;-71
2022/03/07 10:19:49;;;;;;;8.15;4.93;;;;;;;15.64;34.93;102248.22;5064036;28;20558;-71
2022/03/07 10:22:21;;;;;;;7.53;5.80;;;;;;;15.99;33.24;102247.34;5049454;28;20060;-71
2022/03/07 10:24:48;;;;;;;10.63;5.80;;;;;;;16.32;35.09;102251.84;5035482;28;20065;-71
2022/03/07 10:27:25;;;;;;;12.27;5.97;;;;;;;16.02;37.91;102246.31;5048741;28;20094;-69
2022/03/07 10:29:51;;;;;;;14.15;5.80;;;;;;;16.49;34.69;102249.16;5039938;28;24552;-69
2022/03/07 10:32:18;;;;;;;10.95;6.05;;;;;;;16.23;36.66;102249.66;5048909;28;20053;-69
2022/03/07 10:34:44;;;;;;;9.50;5.75;;;;;;;16.06;37.42;102243.47;5054307;28;20408;-69
2022/03/07 10:37:11;;;;;;;8.68;5.78;;;;;;;16.62;32.23;102242.34;5068358;28;20048;-69
2022/03/07 10:39:46;;;;;;;12.57;5.28;;;;;;;16.26;35.87;102252.19;5056196;28;20088;-69
2022/03/07 10:42:16;;;;;;;8.50;5.60;;;;;;;15.46;37.29;102244.66;5066650;28;20183;-69
2022/03/07 10:44:42;;;;;;;9.73;5.35;;;;;;;15.69;35.14;102245.34;5067483;28;20415;-69
2022/03/07 10:47:11;;;;;;;11.20;5.60;;;;;;;15.61;39.59;102242.22;5051370;28;20041;-69
2022/03/07 10:49:47;;;;;;;8.75;5.63;;;;;;;15.54;36.92;102236.38;5048110;28;20049;-69
2022/03/07 10:52:13;;;;;;;9.45;5.78;;;;;;;14.84;38.20;102260.81;5041694;28;20412;-69
2022/03/07 10:54:41;;;;;;;8.35;5.47;;;;;;;15.00;38.18;102245.13;5048179;28;20045;-69
2022/03/07 10:57:09;;;;;;;10.00;5.15;;;;;;;15.24;40.13;102238.69;5043897;28;20118;-65
2022/03/07 10:59:37;;;;;;;7.70;5.20;;;;;;;15.37;36.12;102238.97;5027913;28;20042;-67
2022/03/07 11:02:06;;;;;;;7.45;5.57;;;;;;;15.36;35.46;102230.19;5028429;28;20049;-68
2022/03/07 11:04:33;;;;;;;8.98;5.95;;;;;;;15.41;36.57;102236.09;5028483;28;20037;-68
2022/03/07 11:06:59;;;;;;;9.52;5.72;;;;;;;15.58;36.33;102232.66;5036992;28;20094;-68
2022/03/07 11:09:27;;;;;;;7.80;5.63;;;;;;;15.00;36.46;102229.28;5049879;28;20126;-68
2022/03/07 11:11:55;;;;;;;8.93;5.18;;;;;;;14.80;36.21;102238.09;5051873;28;20463;-68
2022/03/07 11:14:22;;;;;;;7.80;5.50;;;;;;;14.05;38.40;102232.59;5052170;28;20048;-68
2022/03/07 11:16:50;;;;;;;10.68;5.95;;;;;;;14.75;37.02;102218.09;5052630;28;20044;-68
2022/03/07 11:19:19;;;;;;;11.80;5.30;;;;;;;14.96;38.01;102231.22;5050979;28;20048;-68
2022/03/07 11:21:49;;;;;;;9.43;6.32;;;;;;;15.50;38.54;102216.31;5052140;28;20037;-68
2022/03/07 11:24:16;;;;;;;9.00;5.82;;;;;;;15.37;35.83;102208.09;5056113;28;20049;-68
2022/03/07 11:26:43;;;;;;;9.05;5.93;;;;;;;14.85;36.88;102211.50;5069792;28;20048;-68